Terminal Aerodrome Forecast
Issued by NWS Sterling, VA

Home | Current Version | Previous Version | Text Only | Print | Product List | Glossary On
Versions: 1 2 3 4 5 6 7 8 9 10 11 12 13 14 15 16 17 18 19 20 21 22 23 24 25 26
000
FTUS41 KLWX 172300 RRA
TAFIAD
TAF
KIAD 172345Z 1800/1906 11007KT P6SM FEW050 SCT250
     FM180600 10004KT P6SM BKN050
     FM181100 07004KT P6SM BKN020
     FM181400 16007KT P6SM BKN150
     FM181800 18008KT P6SM OVC250=

USA.gov is the U.S. government's official web portal to all federal, state and local government web resources and services.